Terminal Aerodrome Forecast
Issued by NWS

Current Version | Previous Version | Text Only | Print | Product List | Glossary On
Versions: 1 2 3 4 5 6 7 8 9 10 11 12 13 14 15 16
000
FTUS42 KTBW 232336
TAFPIE
TAF
KPIE 232336Z 2400/2424 26007KT P6SM VCTS SCT030CB SCT120 BKN250
     FM240200 VRB03KT P6SM FEW100 SCT250
     FM241400 13006KT P6SM FEW025 BKN250
     FM241700 22007KT P6SM VCTS SCT030CB SCT100 BKN250=

USA.gov is the U.S. government's official web portal to all federal, state and local government web resources and services.